Time;durP1;ratioP1;P1;durP2;ratioP2;P2;SDS_P1;SDS_P2;PMS_P1;PMS_P2;Temp;Humidity;BMP_temperature;BMP_pressure;BME280_temperature;BME280_humidity;BME280_pressure;Samples;Min_cycle;Max_cycle;Signal;HPM_P1;HPM_P2
2021/04/23 00:01:25;;;;;;;;;;;23.00;38.90;;;;;;1544870;75;1933;-62
2021/04/23 00:03:31;;;;;;;;;;;23.00;38.90;;;;;;1545199;75;1149;-63
2021/04/23 00:05:33;;;;;;;;;;;22.90;38.90;;;;;;1552428;75;841;-62
2021/04/23 00:07:35;;;;;;;;;;;22.90;38.80;;;;;;1547195;75;770;-62
2021/04/23 00:09:37;;;;;;;;;;;22.90;38.80;;;;;;1535396;75;721;-63
2021/04/23 00:11:42;;;;;;;;;;;23.00;38.70;;;;;;1540514;75;745;-62
2021/04/23 00:13:44;;;;;;;;;;;23.00;38.60;;;;;;1545775;75;1161;-63
2021/04/23 00:15:46;;;;;;;;;;;23.00;38.60;;;;;;1536152;75;806;-63
2021/04/23 00:17:48;;;;;;;;;;;23.00;38.70;;;;;;1544912;75;711;-63
2021/04/23 00:19:50;;;;;;;;;;;22.90;38.70;;;;;;1544633;75;783;-62
2021/04/23 00:21:52;;;;;;;;;;;23.00;38.70;;;;;;1548146;75;1916;-63
2021/04/23 00:23:54;;;;;;;;;;;23.00;38.80;;;;;;1547955;75;1134;-62
2021/04/23 00:25:56;;;;;;;;;;;23.00;38.70;;;;;;1542000;75;734;-63
2021/04/23 00:28:00;;;;;;;;;;;23.00;38.80;;;;;;1543208;75;803;-61
2021/04/23 00:30:02;;;;;;;;;;;23.00;38.90;;;;;;1551326;75;719;-62
2021/04/23 00:32:04;;;;;;;;;;;23.00;39.10;;;;;;1548473;75;744;-62
2021/04/23 00:34:06;;;;;;;;;;;23.00;39.00;;;;;;1540719;75;1183;-60
2021/04/23 00:36:08;;;;;;;;;;;23.00;39.00;;;;;;1538329;75;699;-62
2021/04/23 00:38:11;;;;;;;;;;;23.00;39.10;;;;;;1541872;75;694;-61
2021/04/23 00:40:13;;;;;;;;;;;23.00;39.10;;;;;;1539087;75;829;-62
2021/04/23 00:42:15;;;;;;;;;;;23.00;39.20;;;;;;1548457;75;1935;-60
2021/04/23 00:44:17;;;;;;;;;;;22.80;39.20;;;;;;1554742;75;1193;-63
2021/04/23 00:46:19;;;;;;;;;;;22.90;39.40;;;;;;1551251;75;762;-62
2021/04/23 00:48:21;;;;;;;;;;;22.90;39.60;;;;;;1533787;75;726;-62
2021/04/23 00:50:27;;;;;;;;;;;22.80;39.40;;;;;;1545534;75;723;-61
2021/04/23 00:52:29;;;;;;;;;;;22.90;39.50;;;;;;1538678;75;784;-62
2021/04/23 00:54:31;;;;;;;;;;;22.80;39.40;;;;;;1553561;75;1101;-63
2021/04/23 00:56:34;;;;;;;;;;;22.80;39.40;;;;;;1546134;75;787;-62
2021/04/23 00:58:36;;;;;;;;;;;22.80;39.40;;;;;;1545370;75;717;-62
2021/04/23 01:00:38;;;;;;;;;;;22.90;39.30;;;;;;1543588;76;789;-62
2021/04/23 01:02:40;;;;;;;;;;;22.90;39.20;;;;;;1540957;75;1939;-62
2021/04/23 01:04:42;;;;;;;;;;;22.90;39.10;;;;;;1540270;75;1248;-62
2021/04/23 01:06:44;;;;;;;;;;;23.00;39.10;;;;;;1553084;75;778;-62
2021/04/23 01:08:46;;;;;;;;;;;23.00;39.10;;;;;;1539262;75;741;-63
2021/04/23 01:10:48;;;;;;;;;;;23.00;38.90;;;;;;1541712;75;815;-62
2021/04/23 01:12:50;;;;;;;;;;;23.00;39.10;;;;;;1540072;75;731;-62
2021/04/23 01:14:52;;;;;;;;;;;23.00;39.00;;;;;;1555470;75;1076;-62
2021/04/23 01:16:54;;;;;;;;;;;23.00;39.00;;;;;;1546687;75;818;-62
2021/04/23 01:18:56;;;;;;;;;;;23.00;39.20;;;;;;1543415;75;574;-63
2021/04/23 01:21:11;;;;;;;;;;;22.90;39.30;;;;;;1545547;75;672;-62
2021/04/23 01:23:13;;;;;;;;;;;22.90;39.30;;;;;;1547185;75;1157;-64
2021/04/23 01:25:15;;;;;;;;;;;23.00;39.40;;;;;;1539345;75;751;-61
2021/04/23 01:27:17;;;;;;;;;;;22.90;39.40;;;;;;1544105;75;814;-62
2021/04/23 01:29:19;;;;;;;;;;;23.00;39.40;;;;;;1554749;75;797;-60
2021/04/23 01:31:22;;;;;;;;;;;22.90;39.40;;;;;;1547577;75;950;-62
2021/04/23 01:33:24;;;;;;;;;;;22.90;39.40;;;;;;1548058;70;2364;-62
2021/04/23 01:35:31;;;;;;;;;;;22.90;39.50;;;;;;1631964;71;567;-67
2021/04/23 01:37:32;;;;;;;;;;;23.00;39.50;;;;;;1633145;71;1676;-66
2021/04/23 01:39:36;;;;;;;;;;;23.00;39.50;;;;;;1633000;71;924;-66
2021/04/23 01:41:38;;;;;;;;;;;22.90;39.40;;;;;;1631568;71;1933;-66
2021/04/23 01:43:40;;;;;;;;;;;22.90;39.40;;;;;;1637500;70;1201;-66
2021/04/23 01:45:42;;;;;;;;;;;23.00;39.50;;;;;;1634255;71;708;-66
2021/04/23 01:47:44;;;;;;;;;;;22.90;39.50;;;;;;1631165;71;752;-66
2021/04/23 01:49:46;;;;;;;;;;;22.90;39.60;;;;;;1635182;71;737;-67
2021/04/23 01:51:48;;;;;;;;;;;22.90;39.50;;;;;;1640482;71;833;-64
2021/04/23 01:53:50;;;;;;;;;;;22.90;39.50;;;;;;1635873;71;1181;-67
2021/04/23 01:55:52;;;;;;;;;;;23.00;39.40;;;;;;1635382;71;737;-67
2021/04/23 01:57:54;;;;;;;;;;;22.90;39.40;;;;;;1636124;71;927;-66
2021/04/23 01:59:56;;;;;;;;;;;22.90;39.40;;;;;;1637392;71;648;-64
2021/04/23 02:01:58;;;;;;;;;;;22.90;39.40;;;;;;1635541;71;1931;-67
2021/04/23 02:04:00;;;;;;;;;;;22.90;39.40;;;;;;1633746;71;1151;-67
2021/04/23 02:06:03;;;;;;;;;;;22.90;39.40;;;;;;1633241;71;946;-67
2021/04/23 02:08:05;;;;;;;;;;;22.90;39.40;;;;;;1637139;71;735;-67
2021/04/23 02:10:09;;;;;;;;;;;22.90;39.40;;;;;;1639397;71;816;-67
2021/04/23 02:12:11;;;;;;;;;;;22.90;39.50;;;;;;1633443;71;693;-68
2021/04/23 02:14:13;;;;;;;;;;;23.00;39.60;;;;;;1624461;71;1092;-67
2021/04/23 02:16:15;;;;;;;;;;;23.00;39.50;;;;;;1638885;71;759;-68
2021/04/23 02:18:17;;;;;;;;;;;23.00;39.50;;;;;;1635048;71;846;-66
2021/04/23 02:20:20;;;;;;;;;;;23.00;39.50;;;;;;1639159;71;800;-65
2021/04/23 02:22:22;;;;;;;;;;;23.00;39.60;;;;;;1642650;71;1948;-66
2021/04/23 02:24:24;;;;;;;;;;;22.90;39.70;;;;;;1635096;71;1113;-66
2021/04/23 02:26:26;;;;;;;;;;;23.00;39.70;;;;;;1643598;71;774;-66
2021/04/23 02:28:28;;;;;;;;;;;23.00;39.70;;;;;;1644474;71;688;-66
2021/04/23 02:30:31;;;;;;;;;;;23.00;39.70;;;;;;1626999;71;771;-67
2021/04/23 02:32:33;;;;;;;;;;;22.90;40.00;;;;;;1632433;71;712;-65
2021/04/23 02:34:35;;;;;;;;;;;22.90;40.20;;;;;;1637078;71;1131;-66
2021/04/23 02:36:36;;;;;;;;;;;22.80;40.30;;;;;;1638493;71;760;-66
2021/04/23 02:38:38;;;;;;;;;;;22.80;40.50;;;;;;1637824;71;775;-66
2021/04/23 02:40:40;;;;;;;;;;;22.80;40.60;;;;;;1632395;71;698;-66
2021/04/23 02:42:42;;;;;;;;;;;22.80;40.60;;;;;;1627967;71;1970;-67
2021/04/23 02:44:44;;;;;;;;;;;22.80;40.50;;;;;;1633343;71;1121;-68
2021/04/23 02:46:46;;;;;;;;;;;22.90;40.60;;;;;;1630977;71;776;-67
2021/04/23 02:48:48;;;;;;;;;;;22.90;40.70;;;;;;1635367;71;791;-65
2021/04/23 02:50:51;;;;;;;;;;;22.80;40.70;;;;;;1632736;71;762;-68
2021/04/23 02:52:53;;;;;;;;;;;22.80;40.70;;;;;;1638885;71;723;-66
2021/04/23 02:54:55;;;;;;;;;;;22.70;40.80;;;;;;1629235;71;1126;-67
2021/04/23 02:56:57;;;;;;;;;;;22.80;41.00;;;;;;1636315;71;762;-67
2021/04/23 02:58:59;;;;;;;;;;;22.70;41.00;;;;;;1634537;71;802;-67
2021/04/23 03:01:01;;;;;;;;;;;22.70;41.30;;;;;;1638601;71;793;-66
2021/04/23 03:03:04;;;;;;;;;;;22.60;41.30;;;;;;1628960;71;1932;-67
2021/04/23 03:05:06;;;;;;;;;;;22.60;41.40;;;;;;1633876;71;1132;-66
2021/04/23 03:07:08;;;;;;;;;;;22.60;41.50;;;;;;1639818;71;793;-66
2021/04/23 03:09:10;;;;;;;;;;;22.60;41.50;;;;;;1636305;71;1111;-67
2021/04/23 03:11:13;;;;;;;;;;;22.60;41.40;;;;;;1630060;71;774;-67
2021/04/23 03:13:16;;;;;;;;;;;22.60;41.50;;;;;;1643607;71;815;-67
2021/04/23 03:15:19;;;;;;;;;;;22.60;41.50;;;;;;1635628;71;1144;-66
2021/04/23 03:17:21;;;;;;;;;;;22.50;41.60;;;;;;1626885;71;796;-67
2021/04/23 03:19:22;;;;;;;;;;;22.60;41.60;;;;;;1636960;71;833;-67
2021/04/23 03:21:25;;;;;;;;;;;22.60;41.60;;;;;;1628736;71;745;-67
2021/04/23 03:23:28;;;;;;;;;;;22.60;41.60;;;;;;1636164;71;1971;-66
2021/04/23 03:25:31;;;;;;;;;;;22.60;41.60;;;;;;1628115;71;626;-65
2021/04/23 03:27:33;;;;;;;;;;;22.60;41.60;;;;;;1633610;71;730;-66
2021/04/23 03:29:35;;;;;;;;;;;22.60;41.60;;;;;;1627509;71;805;-65
2021/04/23 03:31:36;;;;;;;;;;;22.60;41.50;;;;;;1632194;71;723;-65
2021/04/23 03:33:38;;;;;;;;;;;22.60;41.60;;;;;;1638729;71;1121;-65
2021/04/23 03:35:44;;;;;;;;;;;22.60;41.50;;;;;;1635220;71;753;-66
2021/04/23 03:37:44;;;;;;;;;;;22.60;41.50;;;;;;1631382;71;1258;-65
2021/04/23 03:39:46;;;;;;;;;;;22.50;41.50;;;;;;1640587;71;750;-65
2021/04/23 03:41:48;;;;;;;;;;;22.50;41.60;;;;;;1639278;71;774;-65
2021/04/23 03:43:50;;;;;;;;;;;22.50;41.70;;;;;;1642178;71;1936;-65
2021/04/23 03:45:52;;;;;;;;;;;22.60;41.70;;;;;;1624080;71;677;-65
2021/04/23 03:47:54;;;;;;;;;;;22.60;41.50;;;;;;1633823;71;781;-66
2021/04/23 03:49:56;;;;;;;;;;;22.60;41.60;;;;;;1630075;71;800;-64
2021/04/23 03:51:58;;;;;;;;;;;22.60;41.70;;;;;;1630714;71;741;-66
2021/04/23 03:54:00;;;;;;;;;;;22.60;41.50;;;;;;1634753;71;1108;-64
2021/04/23 03:56:02;;;;;;;;;;;22.60;41.40;;;;;;1628004;71;766;-66
2021/04/23 03:58:04;;;;;;;;;;;22.70;41.50;;;;;;1632369;71;831;-65
2021/04/23 04:00:08;;;;;;;;;;;22.70;41.50;;;;;;1633285;71;1330;-66
2021/04/23 04:02:10;;;;;;;;;;;22.80;41.30;;;;;;1635211;71;1943;-66
2021/04/23 04:04:12;;;;;;;;;;;22.80;41.00;;;;;;1633881;71;1093;-66
2021/04/23 04:06:13;;;;;;;;;;;22.90;41.00;;;;;;1639533;71;718;-65
2021/04/23 04:08:15;;;;;;;;;;;22.80;40.90;;;;;;1627583;71;805;-65
2021/04/23 04:10:17;;;;;;;;;;;22.80;40.70;;;;;;1635030;71;791;-66
2021/04/23 04:12:19;;;;;;;;;;;22.80;40.80;;;;;;1639952;71;804;-66
2021/04/23 04:14:21;;;;;;;;;;;22.80;40.90;;;;;;1638795;71;1173;-65
2021/04/23 04:16:23;;;;;;;;;;;22.90;40.90;;;;;;1635007;71;714;-66
2021/04/23 04:18:25;;;;;;;;;;;22.90;41.00;;;;;;1634549;71;757;-67
2021/04/23 04:20:27;;;;;;;;;;;22.90;40.90;;;;;;1639236;71;712;-67
2021/04/23 04:22:29;;;;;;;;;;;22.90;41.00;;;;;;1633641;71;1939;-67
2021/04/23 04:24:31;;;;;;;;;;;22.90;41.00;;;;;;1633862;71;1138;-63
2021/04/23 04:26:33;;;;;;;;;;;23.00;40.90;;;;;;1634592;71;729;-63
2021/04/23 04:28:35;;;;;;;;;;;23.00;40.90;;;;;;1622645;71;822;-63
2021/04/23 04:30:37;;;;;;;;;;;22.90;41.10;;;;;;1627367;71;782;-64
2021/04/23 04:32:39;;;;;;;;;;;22.80;41.00;;;;;;1620377;71;739;-68
2021/04/23 04:34:41;;;;;;;;;;;22.90;41.10;;;;;;1622294;71;1133;-68
2021/04/23 04:36:43;;;;;;;;;;;22.80;41.10;;;;;;1620100;71;777;-66
2021/04/23 04:38:44;;;;;;;;;;;22.80;41.20;;;;;;1620000;71;697;-68
2021/04/23 04:40:47;;;;;;;;;;;22.80;41.30;;;;;;1620556;71;789;-67
2021/04/23 04:42:49;;;;;;;;;;;22.80;41.30;;;;;;1617770;71;1950;-73
2021/04/23 04:44:51;;;;;;;;;;;22.80;41.20;;;;;;1620883;71;1133;-70
2021/04/23 04:46:53;;;;;;;;;;;22.80;41.20;;;;;;1629853;71;722;-70
2021/04/23 04:48:55;;;;;;;;;;;22.80;41.20;;;;;;1638263;71;764;-67
2021/04/23 04:50:58;;;;;;;;;;;22.80;41.30;;;;;;1637690;71;768;-67
2021/04/23 04:53:00;;;;;;;;;;;22.70;41.20;;;;;;1633227;71;742;-67
2021/04/23 04:55:02;;;;;;;;;;;22.80;41.10;;;;;;1639542;71;1148;-68
2021/04/23 04:57:04;;;;;;;;;;;22.80;41.00;;;;;;1642172;71;925;-67
2021/04/23 04:59:06;;;;;;;;;;;22.80;41.10;;;;;;1643203;71;720;-68
2021/04/23 05:01:08;;;;;;;;;;;22.80;41.00;;;;;;1638349;71;729;-69
2021/04/23 05:03:10;;;;;;;;;;;22.80;41.10;;;;;;1634786;71;1927;-67
2021/04/23 05:05:13;;;;;;;;;;;22.80;41.10;;;;;;1636599;71;1117;-67
2021/04/23 05:07:14;;;;;;;;;;;22.70;41.30;;;;;;1639673;71;887;-68
2021/04/23 05:09:16;;;;;;;;;;;22.70;41.20;;;;;;1641574;71;769;-64
2021/04/23 05:11:18;;;;;;;;;;;22.60;41.30;;;;;;1631467;71;677;-65
2021/04/23 05:13:20;;;;;;;;;;;22.60;41.40;;;;;;1637135;70;1122;-62
2021/04/23 05:15:22;;;;;;;;;;;22.60;41.40;;;;;;1637877;71;686;-67
2021/04/23 05:17:24;;;;;;;;;;;22.50;41.50;;;;;;1641962;71;798;-66
2021/04/23 05:19:26;;;;;;;;;;;22.60;41.60;;;;;;1623541;71;709;-68
2021/04/23 05:21:28;;;;;;;;;;;22.60;41.60;;;;;;1636485;71;749;-69
2021/04/23 05:23:29;;;;;;;;;;;22.60;41.60;;;;;;1634095;71;1934;-67
2021/04/23 05:25:32;;;;;;;;;;;22.60;41.70;;;;;;1637953;71;779;-66
2021/04/23 05:27:35;;;;;;;;;;;22.60;41.60;;;;;;1634091;71;773;-66
2021/04/23 05:29:36;;;;;;;;;;;22.70;41.70;;;;;;1630249;71;732;-66
2021/04/23 05:31:38;;;;;;;;;;;22.60;41.60;;;;;;1626195;71;806;-69
2021/04/23 05:33:40;;;;;;;;;;;22.60;42.10;;;;;;1641245;71;1119;-66
2021/04/23 05:35:42;;;;;;;;;;;22.60;42.10;;;;;;1639793;71;758;-68
2021/04/23 05:37:44;;;;;;;;;;;22.60;42.00;;;;;;1628305;71;822;-67
2021/04/23 05:39:46;;;;;;;;;;;22.60;41.80;;;;;;1630809;71;724;-68
2021/04/23 05:41:48;;;;;;;;;;;22.60;41.60;;;;;;1636641;71;772;-68
2021/04/23 05:43:50;;;;;;;;;;;22.70;41.40;;;;;;1626756;71;1928;-70
2021/04/23 05:45:52;;;;;;;;;;;22.60;41.10;;;;;;1629756;71;748;-70
2021/04/23 05:47:54;;;;;;;;;;;22.60;41.00;;;;;;1637257;71;738;-76
2021/04/23 05:49:55;;;;;;;;;;;22.70;41.00;;;;;;1640947;71;790;-70
2021/04/23 05:51:58;;;;;;;;;;;22.80;40.80;;;;;;1638035;71;730;-72
2021/04/23 05:53:59;;;;;;;;;;;22.80;40.60;;;;;;1637924;71;1124;-68
2021/04/23 05:56:01;;;;;;;;;;;22.70;40.80;;;;;;1633994;71;823;-70
2021/04/23 05:58:04;;;;;;;;;;;22.70;40.90;;;;;;1633894;71;673;-71
2021/04/23 06:00:07;;;;;;;;;;;22.70;40.80;;;;;;1643556;71;775;-68
2021/04/23 06:02:09;;;;;;;;;;;22.80;40.50;;;;;;1634745;71;830;-70
2021/04/23 06:04:11;;;;;;;;;;;22.80;40.30;;;;;;1631840;71;1931;-72
2021/04/23 06:06:13;;;;;;;;;;;22.90;40.20;;;;;;1635159;71;811;-69
2021/04/23 06:08:14;;;;;;;;;;;23.00;40.00;;;;;;1640984;71;639;-68
2021/04/23 06:10:16;;;;;;;;;;;23.20;39.20;;;;;;1637530;71;792;-67
2021/04/23 06:12:18;;;;;;;;;;;23.20;39.00;;;;;;1636128;71;818;-72
2021/04/23 06:14:24;;;;;;;;;;;23.30;38.80;;;;;;1636429;71;1172;-77
2021/04/23 06:16:24;;;;;;;;;;;23.40;38.20;;;;;;1632838;71;1272;-65
2021/04/23 06:18:25;;;;;;;;;;;23.40;38.00;;;;;;1632639;71;819;-65
2021/04/23 06:20:28;;;;;;;;;;;23.40;37.90;;;;;;1630106;71;660;-71
2021/04/23 06:22:30;;;;;;;;;;;23.40;37.40;;;;;;1629526;71;782;-65
2021/04/23 06:24:33;;;;;;;;;;;23.40;37.20;;;;;;1641447;71;1930;-65
2021/04/23 06:26:34;;;;;;;;;;;23.40;37.10;;;;;;1632193;71;742;-65
2021/04/23 06:28:36;;;;;;;;;;;23.50;37.40;;;;;;1634102;71;839;-66
2021/04/23 06:30:39;;;;;;;;;;;23.60;37.30;;;;;;1642271;71;799;-66
2021/04/23 06:32:43;;;;;;;;;;;23.60;37.00;;;;;;1642369;71;834;-65
2021/04/23 06:34:45;;;;;;;;;;;23.50;37.00;;;;;;1638158;71;1978;-65
2021/04/23 06:36:46;;;;;;;;;;;23.60;36.80;;;;;;1628323;71;784;-66
2021/04/23 06:38:48;;;;;;;;;;;23.60;36.80;;;;;;1637393;71;682;-66
2021/04/23 06:40:51;;;;;;;;;;;23.70;36.90;;;;;;1637494;71;872;-65
2021/04/23 06:42:53;;;;;;;;;;;23.70;36.60;;;;;;1631373;71;726;-66
2021/04/23 06:44:55;;;;;;;;;;;23.80;36.60;;;;;;1630927;71;1957;-68
2021/04/23 06:46:57;;;;;;;;;;;23.90;36.40;;;;;;1634066;71;797;-63
2021/04/23 06:48:58;;;;;;;;;;;23.90;36.20;;;;;;1644374;71;779;-66
2021/04/23 06:51:03;;;;;;;;;;;24.00;36.40;;;;;;1638458;71;711;-68
2021/04/23 06:53:04;;;;;;;;;;;24.00;37.00;;;;;;1630861;71;1692;-65
2021/04/23 06:55:09;;;;;;;;;;;24.00;37.50;;;;;;1626376;71;1117;-67
2021/04/23 06:57:11;;;;;;;;;;;24.20;37.50;;;;;;1623370;71;861;-65
2021/04/23 06:59:13;;;;;;;;;;;24.20;37.20;;;;;;1622559;71;696;-66
2021/04/23 07:01:16;;;;;;;;;;;24.30;37.10;;;;;;1631475;71;611;-65
2021/04/23 07:03:18;;;;;;;;;;;24.40;36.90;;;;;;1630919;71;1896;-67
2021/04/23 07:05:20;;;;;;;;;;;24.50;36.90;;;;;;1631399;71;798;-67
2021/04/23 07:07:22;;;;;;;;;;;24.50;36.80;;;;;;1628592;71;717;-65
2021/04/23 07:09:24;;;;;;;;;;;24.50;36.80;;;;;;1643853;71;798;-66
2021/04/23 07:11:26;;;;;;;;;;;24.60;36.60;;;;;;1635251;71;700;-65
2021/04/23 07:13:28;;;;;;;;;;;24.60;36.60;;;;;;1631195;71;1169;-66
2021/04/23 07:15:30;;;;;;;;;;;24.60;36.50;;;;;;1634358;71;720;-65
2021/04/23 07:17:32;;;;;;;;;;;24.60;36.40;;;;;;1635594;71;690;-65
2021/04/23 07:19:34;;;;;;;;;;;24.60;36.30;;;;;;1635900;71;764;-65
2021/04/23 07:21:36;;;;;;;;;;;24.60;36.30;;;;;;1631971;71;730;-67
2021/04/23 07:23:38;;;;;;;;;;;24.70;36.40;;;;;;1633721;71;2087;-66
2021/04/23 07:25:40;;;;;;;;;;;24.70;36.30;;;;;;1615211;71;833;-65
2021/04/23 07:27:41;;;;;;;;;;;24.70;36.30;;;;;;1613179;71;778;-67
2021/04/23 07:29:43;;;;;;;;;;;24.60;36.20;;;;;;1628661;71;791;-65
2021/04/23 07:31:45;;;;;;;;;;;24.70;36.20;;;;;;1622017;71;771;-64
2021/04/23 07:35:51;;;;;;;;;;;24.70;36.20;;;;;;1569662;74;616;-58
2021/04/23 07:37:53;;;;;;;;;;;24.70;36.20;;;;;;1569468;74;763;-58
2021/04/23 07:39:55;;;;;;;;;;;24.80;36.20;;;;;;1551971;74;1179;-57
2021/04/23 07:41:57;;;;;;;;;;;24.70;36.10;;;;;;1573532;74;729;-57
2021/04/23 07:43:59;;;;;;;;;;;24.80;36.10;;;;;;1572727;74;1929;-56
2021/04/23 07:46:01;;;;;;;;;;;24.80;36.00;;;;;;1573416;74;765;-57
2021/04/23 07:48:03;;;;;;;;;;;24.80;36.00;;;;;;1572307;74;823;-60
2021/04/23 07:50:08;;;;;;;;;;;24.70;36.10;;;;;;1572849;74;1133;-58
2021/04/23 07:52:10;;;;;;;;;;;24.70;36.00;;;;;;1575523;74;769;-61
2021/04/23 07:54:12;;;;;;;;;;;24.70;36.00;;;;;;1577563;74;789;-59
2021/04/23 07:56:14;;;;;;;;;;;24.70;36.00;;;;;;1575345;74;732;-58
2021/04/23 07:58:16;;;;;;;;;;;24.70;36.00;;;;;;1570587;74;728;-58
2021/04/23 08:00:18;;;;;;;;;;;24.80;35.90;;;;;;1580139;74;1124;-57
2021/04/23 08:02:20;;;;;;;;;;;24.80;35.80;;;;;;1573169;74;914;-57
2021/04/23 08:04:23;;;;;;;;;;;24.70;35.80;;;;;;1574678;74;1935;-57
2021/04/23 08:06:25;;;;;;;;;;;24.80;35.80;;;;;;1569634;74;972;-61
2021/04/23 08:08:27;;;;;;;;;;;24.80;35.70;;;;;;1570802;74;764;-59
2021/04/23 08:10:29;;;;;;;;;;;24.80;35.70;;;;;;1575180;74;1159;-59
2021/04/23 08:12:31;;;;;;;;;;;24.80;35.70;;;;;;1574261;74;683;-59
2021/04/23 08:14:32;;;;;;;;;;;24.80;35.80;;;;;;1570537;74;764;-59
2021/04/23 08:16:35;;;;;;;;;;;24.80;35.70;;;;;;1573692;74;767;-59
2021/04/23 08:18:39;;;;;;;;;;;24.80;35.70;;;;;;1573137;74;751;-58
2021/04/23 08:20:40;;;;;;;;;;;24.70;35.70;;;;;;1572375;74;1146;-58
2021/04/23 08:22:43;;;;;;;;;;;24.80;35.70;;;;;;1573285;74;790;-57
2021/04/23 08:24:44;;;;;;;;;;;24.80;35.70;;;;;;1569458;74;1926;-57
2021/04/23 08:26:47;;;;;;;;;;;24.80;35.70;;;;;;1573397;74;727;-61
2021/04/23 08:28:49;;;;;;;;;;;24.80;35.70;;;;;;1572631;74;1116;-60
2021/04/23 08:30:50;;;;;;;;;;;24.80;35.50;;;;;;1577600;74;734;-57
2021/04/23 08:32:52;;;;;;;;;;;24.80;35.50;;;;;;1578076;74;814;-57
2021/04/23 08:34:54;;;;;;;;;;;24.80;35.50;;;;;;1579030;74;798;-59
2021/04/23 08:36:56;;;;;;;;;;;24.80;35.60;;;;;;1574950;74;687;-59
2021/04/23 08:38:58;;;;;;;;;;;24.80;35.50;;;;;;1576595;74;1123;-56
2021/04/23 08:41:00;;;;;;;;;;;24.70;35.50;;;;;;1576411;74;708;-59
2021/04/23 08:43:02;;;;;;;;;;;24.70;35.50;;;;;;1570220;74;746;-61
2021/04/23 08:45:05;;;;;;;;;;;24.80;35.50;;;;;;1578284;74;1937;-59
2021/04/23 08:47:07;;;;;;;;;;;24.70;35.60;;;;;;1566248;74;716;-60
2021/04/23 08:49:09;;;;;;;;;;;24.70;35.50;;;;;;1574548;74;1171;-60
2021/04/23 08:51:10;;;;;;;;;;;24.70;35.50;;;;;;1576109;74;741;-60
2021/04/23 08:53:12;;;;;;;;;;;24.70;35.60;;;;;;1577318;74;675;-58
2021/04/23 08:55:15;;;;;;;;;;;24.70;35.50;;;;;;1574005;74;783;-58
2021/04/23 08:57:17;;;;;;;;;;;24.70;35.60;;;;;;1573008;74;761;-59
2021/04/23 08:59:19;;;;;;;;;;;24.70;35.60;;;;;;1579813;74;1136;-57
2021/04/23 09:01:21;;;;;;;;;;;24.60;35.50;;;;;;1575556;74;795;-57
2021/04/23 09:03:24;;;;;;;;;;;24.70;35.70;;;;;;1573942;74;865;-58
2021/04/23 09:05:26;;;;;;;;;;;24.60;35.50;;;;;;1573787;74;1904;-60
2021/04/23 09:07:28;;;;;;;;;;;24.60;35.50;;;;;;1573010;74;738;-57
2021/04/23 09:09:35;;;;;;;;;;;24.60;35.40;;;;;;1574321;74;1150;-59
2021/04/23 09:11:40;;;;;;;;;;;24.50;35.50;;;;;;1563541;74;1947;-61
2021/04/23 09:13:52;;;;;;;;;;;24.50;35.50;;;;;;1569470;74;753;-60
2021/04/23 09:15:55;;;;;;;;;;;24.50;35.50;;;;;;1572340;74;699;-62
2021/04/23 09:18:08;;;;;;;;;;;24.50;35.50;;;;;;1573029;74;708;-59
2021/04/23 09:20:10;;;;;;;;;;;24.50;35.50;;;;;;1574539;74;1163;-60
2021/04/23 09:22:19;;;;;;;;;;;24.50;35.50;;;;;;1563066;75;1125;-59
2021/04/23 09:24:22;;;;;;;;;;;24.50;35.40;;;;;;1572333;74;1920;-60
2021/04/23 09:26:32;;;;;;;;;;;24.50;35.50;;;;;;1570567;74;733;-58
2021/04/23 09:28:37;;;;;;;;;;;24.50;35.50;;;;;;1566577;74;1812;-57
2021/04/23 09:30:39;;;;;;;;;;;24.50;35.50;;;;;;1563872;74;1077;-61
2021/04/23 09:32:42;;;;;;;;;;;24.40;35.40;;;;;;1566731;74;800;-61
2021/04/23 09:34:58;;;;;;;;;;;24.40;35.40;;;;;;1569708;74;618;-60
2021/04/23 09:37:00;;;;;;;;;;;24.50;35.30;;;;;;1573780;74;781;-58
2021/04/23 09:39:11;;;;;;;;;;;24.40;35.30;;;;;;1573202;74;1128;-58
2021/04/23 09:41:21;;;;;;;;;;;24.30;35.40;;;;;;1571154;74;693;-58
2021/04/23 09:43:25;;;;;;;;;;;24.40;35.40;;;;;;1574609;74;824;-59
2021/04/23 09:45:28;;;;;;;;;;;24.40;35.40;;;;;;1571513;74;2084;-58
2021/04/23 09:47:30;;;;;;;;;;;24.30;35.50;;;;;;1573066;74;1147;-58
2021/04/23 09:49:32;;;;;;;;;;;24.30;35.50;;;;;;1567152;74;1156;-58
2021/04/23 09:51:35;;;;;;;;;;;24.30;35.50;;;;;;1545217;75;707;-58
2021/04/23 09:53:37;;;;;;;;;;;24.40;35.50;;;;;;1513878;77;739;-59
2021/04/23 09:55:39;;;;;;;;;;;24.20;35.20;;;;;;1512642;77;807;-59
2021/04/23 09:57:42;;;;;;;;;;;24.30;35.40;;;;;;1508487;77;825;-60
2021/04/23 09:59:55;;;;;;;;;;;24.40;35.50;;;;;;1542813;75;1874;-58
2021/04/23 10:02:04;;;;;;;;;;;24.20;35.20;;;;;;1538288;75;1807;-61
2021/04/23 10:04:07;;;;;;;;;;;24.30;35.40;;;;;;1547219;75;782;-59
2021/04/23 10:06:22;;;;;;;;;;;24.20;35.30;;;;;;1537345;75;1995;-58
2021/04/23 10:08:24;;;;;;;;;;;24.20;35.40;;;;;;1543618;75;698;-58
2021/04/23 10:10:26;;;;;;;;;;;24.20;35.00;;;;;;1544588;75;1121;-58
2021/04/23 10:12:36;;;;;;;;;;;24.20;34.90;;;;;;1539607;75;759;-61
2021/04/23 10:14:38;;;;;;;;;;;24.10;34.80;;;;;;1510522;77;809;-58
2021/04/23 10:16:40;;;;;;;;;;;24.10;34.80;;;;;;1538232;75;851;-60
2021/04/23 10:18:42;;;;;;;;;;;24.00;35.00;;;;;;1569961;74;797;-57
2021/04/23 10:20:44;;;;;;;;;;;24.10;34.80;;;;;;1576748;74;1124;-59
2021/04/23 10:22:46;;;;;;;;;;;24.10;34.90;;;;;;1572062;74;736;-61
2021/04/23 10:24:49;;;;;;;;;;;24.00;34.70;;;;;;1574276;74;1933;-60
2021/04/23 10:26:52;;;;;;;;;;;24.00;34.80;;;;;;1569394;74;743;-59
2021/04/23 10:28:54;;;;;;;;;;;24.00;35.00;;;;;;1573005;74;1167;-58
2021/04/23 10:30:56;;;;;;;;;;;24.00;34.90;;;;;;1570245;74;713;-60
2021/04/23 10:32:58;;;;;;;;;;;24.00;34.90;;;;;;1575174;74;812;-61
2021/04/23 10:35:00;;;;;;;;;;;24.00;35.00;;;;;;1575577;74;755;-58
2021/04/23 10:37:02;;;;;;;;;;;24.00;35.00;;;;;;1577714;74;799;-59
2021/04/23 10:39:06;;;;;;;;;;;23.90;35.50;;;;;;1579060;74;1132;-60
2021/04/23 10:41:10;;;;;;;;;;;23.90;34.00;;;;;;1578061;74;682;-58
2021/04/23 10:43:18;;;;;;;;;;;23.80;33.50;;;;;;1573449;74;2050;-57
2021/04/23 10:45:25;;;;;;;;;;;23.80;33.30;;;;;;1572359;74;1921;-57
2021/04/23 10:47:31;;;;;;;;;;;23.80;33.90;;;;;;1568110;74;1074;-58
2021/04/23 10:49:33;;;;;;;;;;;23.70;34.00;;;;;;1562211;74;1317;-60
2021/04/23 10:51:35;;;;;;;;;;;23.70;33.60;;;;;;1566548;74;696;-57
2021/04/23 10:53:44;;;;;;;;;;;23.70;33.70;;;;;;1579037;74;688;-60
2021/04/23 10:55:45;;;;;;;;;;;23.70;33.10;;;;;;1569691;74;1617;-57
2021/04/23 10:57:54;;;;;;;;;;;23.60;33.20;;;;;;1573535;74;799;-54
2021/04/23 10:59:57;;;;;;;;;;;23.50;33.50;;;;;;1575061;74;1120;-56
2021/04/23 11:02:00;;;;;;;;;;;23.50;33.30;;;;;;1582591;74;794;-58
2021/04/23 11:04:07;;;;;;;;;;;23.50;33.00;;;;;;1569632;74;1010;-60
2021/04/23 11:06:17;;;;;;;;;;;23.50;31.90;;;;;;1578313;74;1918;-58
2021/04/23 11:08:19;;;;;;;;;;;23.40;31.80;;;;;;1583357;74;857;-57
2021/04/23 11:10:20;;;;;;;;;;;23.40;32.20;;;;;;1577224;74;1184;-53
2021/04/23 11:12:25;;;;;;;;;;;23.30;32.50;;;;;;1572919;74;652;-58
2021/04/23 11:14:27;;;;;;;;;;;23.30;32.80;;;;;;1573815;74;1664;-58
2021/04/23 11:16:28;;;;;;;;;;;23.20;31.70;;;;;;1573340;74;797;-60
2021/04/23 11:18:30;;;;;;;;;;;23.20;31.90;;;;;;1567037;74;805;-59
2021/04/23 11:20:32;;;;;;;;;;;23.20;32.30;;;;;;1569916;74;1066;-60
2021/04/23 11:22:34;;;;;;;;;;;23.20;30.70;;;;;;1570602;74;788;-57
2021/04/23 11:24:36;;;;;;;;;;;23.10;31.80;;;;;;1573361;74;749;-55
2021/04/23 11:26:57;;;;;;;;;;;23.10;30.60;;;;;;1572991;74;1840;-55
2021/04/23 11:29:14;;;;;;;;;;;23.10;32.20;;;;;;1574456;74;1136;-56
2021/04/23 11:31:16;;;;;;;;;;;23.10;31.30;;;;;;1568846;74;742;-56
2021/04/23 11:33:19;;;;;;;;;;;23.10;30.10;;;;;;1573147;74;762;-61
2021/04/23 11:35:22;;;;;;;;;;;23.10;29.30;;;;;;1567753;74;1233;-53
2021/04/23 11:37:24;;;;;;;;;;;23.00;29.50;;;;;;1573311;74;768;-60
2021/04/23 11:39:31;;;;;;;;;;;22.90;29.60;;;;;;1575941;74;1148;-57
2021/04/23 11:41:33;;;;;;;;;;;22.90;30.00;;;;;;1575014;74;908;-59
2021/04/23 11:43:36;;;;;;;;;;;22.90;30.60;;;;;;1572506;74;750;-59
2021/04/23 11:45:40;;;;;;;;;;;22.90;31.40;;;;;;1576349;74;1922;-58
2021/04/23 11:47:43;;;;;;;;;;;23.00;29.80;;;;;;1573861;74;693;-56
2021/04/23 11:49:44;;;;;;;;;;;22.90;30.00;;;;;;1575779;74;1066;-58
2021/04/23 11:51:48;;;;;;;;;;;22.80;31.20;;;;;;1569911;74;669;-56
2021/04/23 11:53:50;;;;;;;;;;;22.80;31.10;;;;;;1572278;74;2041;-57
2021/04/23 11:55:53;;;;;;;;;;;22.70;27.80;;;;;;1571987;74;768;-55
2021/04/23 11:58:03;;;;;;;;;;;22.40;26.70;;;;;;1573214;74;801;-58
2021/04/23 12:00:18;;;;;;;;;;;22.20;27.30;;;;;;1573018;74;1120;-60
2021/04/23 12:02:39;;;;;;;;;;;22.00;26.50;;;;;;1570864;74;773;-58
2021/04/23 12:04:46;;;;;;;;;;;21.90;23.00;;;;;;1567108;75;729;-57
2021/04/23 12:06:50;;;;;;;;;;;21.70;25.70;;;;;;1573957;74;1966;-60
2021/04/23 12:08:52;;;;;;;;;;;21.50;24.20;;;;;;1574085;74;1475;-58
2021/04/23 12:10:55;;;;;;;;;;;21.30;24.70;;;;;;1573125;74;782;-56
2021/04/23 12:12:57;;;;;;;;;;;21.40;26.50;;;;;;1573594;74;711;-57
2021/04/23 12:14:59;;;;;;;;;;;21.50;26.20;;;;;;1575305;74;780;-59